createdAt,value
2018-12-03T00:01:12.715Z,10.70
2018-12-03T00:03:41.931Z,10.60
2018-12-03T00:06:11.248Z,10.70
2018-12-03T00:08:42.178Z,10.60
2018-12-03T00:11:11.204Z,10.70
2018-12-03T00:13:40.456Z,10.60
2018-12-03T00:16:09.675Z,10.60
2018-12-03T00:18:38.731Z,10.70
2018-12-03T00:21:07.983Z,10.60
2018-12-03T00:23:37.141Z,10.70
2018-12-03T00:26:10.993Z,10.60
2018-12-03T00:28:40.179Z,10.60
2018-12-03T00:31:09.365Z,10.60
2018-12-03T00:33:38.322Z,10.70
2018-12-03T00:36:07.529Z,10.70
2018-12-03T00:38:36.715Z,10.70
2018-12-03T00:41:05.822Z,10.80
2018-12-03T00:43:35.862Z,10.80
2018-12-03T00:46:06.287Z,10.80
2018-12-03T00:48:35.643Z,10.80
2018-12-03T00:51:06.541Z,10.80
2018-12-03T00:53:37.586Z,10.80
2018-12-03T00:56:08.029Z,10.80
2018-12-03T00:58:37.490Z,10.80
2018-12-03T01:01:07.949Z,10.80
2018-12-03T01:03:37.130Z,10.80
2018-12-03T01:06:06.612Z,10.80
2018-12-03T01:08:36.603Z,10.80
2018-12-03T01:11:05.926Z,10.80
2018-12-03T01:13:35.270Z,10.90
2018-12-03T01:16:05.159Z,11.00
2018-12-03T01:18:34.488Z,11.00
2018-12-03T01:21:04.418Z,11.00
2018-12-03T01:23:39.904Z,11.00
2018-12-03T01:26:09.092Z,10.90
2018-12-03T01:28:38.288Z,10.90
2018-12-03T01:31:07.516Z,10.90
2018-12-03T01:33:36.433Z,11.00
2018-12-03T01:36:05.785Z,11.00
2018-12-03T01:38:34.803Z,11.00
2018-12-03T01:41:03.742Z,11.00
2018-12-03T01:43:32.990Z,11.00
2018-12-03T01:46:02.019Z,11.10
2018-12-03T01:48:30.974Z,11.00
2018-12-03T01:50:59.928Z,11.00
2018-12-03T01:53:28.958Z,11.00
2018-12-03T01:55:58.914Z,10.90
2018-12-03T01:58:28.099Z,10.90
2018-12-03T02:00:57.338Z,10.90
2018-12-03T02:03:26.267Z,10.90
2018-12-03T02:05:55.205Z,11.00
2018-12-03T02:08:24.357Z,11.00
2018-12-03T02:10:53.483Z,11.10
2018-12-03T02:13:22.454Z,11.00
2018-12-03T02:15:51.406Z,11.00
2018-12-03T02:18:20.603Z,10.90
2018-12-03T02:20:49.578Z,11.00
2018-12-03T02:23:18.501Z,10.90
2018-12-03T02:25:47.712Z,10.90
2018-12-03T02:28:16.906Z,10.80
2018-12-03T02:30:45.850Z,10.80
2018-12-03T02:33:15.136Z,10.80
2018-12-03T02:35:44.110Z,10.80
2018-12-03T02:38:13.336Z,10.70
2018-12-03T02:40:42.335Z,10.80
2018-12-03T02:43:11.533Z,10.80
2018-12-03T02:45:40.585Z,10.90
2018-12-03T02:48:09.791Z,10.80
2018-12-03T02:50:38.793Z,11.00
2018-12-03T02:53:08.035Z,10.90
2018-12-03T02:55:37.002Z,11.00
2018-12-03T02:58:06.990Z,11.10
2018-12-03T03:00:39.859Z,11.00
2018-12-03T03:03:08.882Z,11.00
2018-12-03T03:05:38.059Z,11.00
2018-12-03T03:08:07.236Z,11.10
2018-12-03T03:10:36.554Z,11.00
2018-12-03T03:13:05.764Z,11.10
2018-12-03T03:15:35.605Z,11.10
2018-12-03T03:18:04.890Z,11.10
2018-12-03T03:20:34.159Z,11.00
2018-12-03T03:23:03.162Z,11.10
2018-12-03T03:25:32.364Z,11.00
2018-12-03T03:28:01.310Z,11.10
2018-12-03T03:30:30.246Z,11.10
2018-12-03T03:32:59.200Z,11.10
2018-12-03T03:35:28.451Z,11.00
2018-12-03T03:37:57.406Z,11.10
2018-12-03T03:40:26.569Z,11.00
2018-12-03T03:42:55.484Z,11.10
2018-12-03T03:45:25.405Z,11.00
2018-12-03T03:47:54.570Z,11.00
2018-12-03T03:50:23.542Z,11.00
2018-12-03T03:52:52.490Z,11.00
2018-12-03T03:55:21.417Z,11.00
2018-12-03T03:57:50.626Z,11.00
2018-12-03T04:00:19.797Z,11.00
2018-12-03T04:02:48.976Z,10.90
2018-12-03T04:05:17.893Z,11.00
2018-12-03T04:07:47.670Z,11.00
2018-12-03T04:10:17.168Z,11.00
2018-12-03T04:12:46.578Z,11.00
2018-12-03T04:15:16.796Z,11.00
2018-12-03T04:17:46.042Z,11.00
2018-12-03T04:20:18.869Z,11.00
2018-12-03T04:22:55.080Z,11.20
2018-12-03T04:25:24.248Z,11.10
2018-12-03T04:27:53.417Z,11.10
2018-12-03T04:30:22.897Z,11.20
2018-12-03T04:32:53.333Z,11.10
2018-12-03T04:35:24.186Z,11.10
2018-12-03T04:37:53.123Z,11.10
2018-12-03T04:40:22.289Z,11.10
2018-12-03T04:42:51.466Z,11.10
2018-12-03T04:45:20.670Z,11.10
2018-12-03T04:47:50.741Z,11.10
2018-12-03T04:50:21.407Z,11.10
2018-12-03T04:52:50.628Z,11.10
2018-12-03T04:55:21.099Z,11.10
2018-12-03T04:57:50.533Z,11.10
2018-12-03T05:00:20.370Z,11.10
2018-12-03T05:02:50.496Z,11.10
2018-12-03T05:05:30.462Z,11.10
2018-12-03T05:07:59.459Z,11.20
2018-12-03T05:10:28.630Z,11.10
2018-12-03T05:12:57.747Z,11.20
2018-12-03T05:15:26.696Z,11.10
2018-12-03T05:17:55.636Z,11.20
2018-12-03T05:20:25.623Z,11.00
2018-12-03T05:22:54.829Z,11.10
2018-12-03T05:25:23.768Z,11.10
2018-12-03T05:27:52.998Z,11.10
2018-12-03T05:30:21.929Z,11.20
2018-12-03T05:32:50.885Z,11.20
2018-12-03T05:35:24.919Z,11.20
2018-12-03T05:37:53.939Z,11.10
2018-12-03T05:40:26.336Z,11.10
2018-12-03T05:42:55.616Z,11.00
2018-12-03T05:45:24.793Z,11.10
2018-12-03T05:47:53.779Z,11.10
2018-12-03T05:50:22.948Z,11.00
2018-12-03T05:52:51.889Z,11.00
2018-12-03T05:55:21.075Z,11.00
2018-12-03T05:57:50.282Z,11.10
2018-12-03T06:00:21.525Z,11.10
2018-12-03T06:02:50.453Z,11.20
2018-12-03T06:05:19.698Z,11.10
2018-12-03T06:07:48.667Z,11.10
2018-12-03T06:10:19.432Z,11.10
2018-12-03T06:12:48.434Z,11.10
2018-12-03T06:15:19.725Z,11.10
2018-12-03T06:17:50.161Z,11.10
2018-12-03T06:20:19.981Z,11.10
2018-12-03T06:22:50.114Z,11.20
2018-12-03T06:25:22.864Z,11.20
2018-12-03T06:27:52.006Z,11.20
2018-12-03T06:30:22.813Z,11.20
2018-12-03T06:32:52.060Z,11.20
2018-12-03T06:35:21.778Z,11.10
2018-12-03T06:37:51.444Z,11.20
2018-12-03T06:40:29.350Z,11.20
2018-12-03T06:42:58.374Z,11.20
2018-12-03T06:45:28.202Z,11.10
2018-12-03T06:48:00.453Z,11.10
2018-12-03T06:50:29.470Z,11.20
2018-12-03T06:52:58.411Z,11.20
2018-12-03T06:55:27.569Z,11.20
2018-12-03T06:57:56.783Z,11.10
2018-12-03T07:00:26.151Z,11.20
2018-12-03T07:02:55.318Z,11.20
2018-12-03T07:05:24.227Z,11.20
2018-12-03T07:07:55.018Z,11.20
2018-12-03T07:10:24.499Z,11.20
2018-12-03T07:12:57.180Z,11.20
2018-12-03T07:15:26.142Z,11.20
2018-12-03T07:17:56.698Z,11.30
2018-12-03T07:20:25.929Z,11.30
2018-12-03T07:22:54.921Z,11.30
2018-12-03T07:25:24.094Z,11.20
2018-12-03T07:27:53.047Z,11.20
2018-12-03T07:30:23.798Z,11.20
2018-12-03T07:32:53.014Z,11.20
2018-12-03T07:35:23.818Z,11.20
2018-12-03T07:37:55.652Z,11.20
2018-12-03T07:40:24.641Z,11.00
2018-12-03T07:42:53.587Z,11.10
2018-12-03T07:45:24.146Z,11.10
2018-12-03T07:47:53.058Z,11.10
2018-12-03T07:50:22.902Z,11.20
2018-12-03T07:52:52.157Z,11.10
2018-12-03T07:55:22.502Z,11.20
2018-12-03T07:57:57.142Z,11.30
2018-12-03T08:00:31.236Z,11.40
2018-12-03T08:03:00.189Z,11.40
2018-12-03T08:05:29.182Z,11.50
2018-12-03T08:07:58.144Z,11.50
2018-12-03T08:10:27.414Z,11.50
2018-12-03T08:12:56.550Z,11.60
2018-12-03T08:15:25.490Z,11.60
2018-12-03T08:17:58.410Z,11.60
2018-12-03T08:20:31.534Z,11.60
2018-12-03T08:23:08.918Z,11.60
2018-12-03T08:25:38.605Z,11.60
2018-12-03T08:28:07.856Z,11.60
2018-12-03T08:30:37.060Z,11.70
2018-12-03T08:33:06.564Z,11.70
2018-12-03T08:35:35.819Z,11.80
2018-12-03T08:38:39.381Z,11.90
2018-12-03T08:41:10.787Z,11.90
2018-12-03T08:43:38.997Z,12.00
2018-12-03T08:46:07.258Z,12.00
2018-12-03T08:48:36.652Z,12.10
2018-12-03T08:51:22.150Z,12.00
2018-12-03T08:54:02.942Z,12.10
2018-12-03T08:56:47.494Z,12.10
2018-12-03T08:59:15.680Z,12.10
2018-12-03T09:01:43.914Z,12.20
2018-12-03T09:04:12.160Z,12.20
2018-12-03T09:06:56.663Z,12.20
2018-12-03T09:09:24.884Z,12.20
2018-12-03T09:11:53.075Z,12.30
2018-12-03T09:14:25.269Z,12.30
2018-12-03T09:17:02.312Z,12.40
2018-12-03T09:19:27.433Z,12.50
2018-12-03T09:21:55.606Z,12.50
2018-12-03T09:24:23.873Z,12.50
2018-12-03T09:26:55.319Z,12.50
2018-12-03T09:29:23.603Z,12.50
2018-12-03T09:32:05.037Z,12.50
2018-12-03T09:34:33.274Z,12.50
2018-12-03T09:39:56.891Z,12.40
2018-12-03T09:42:28.385Z,12.50
2018-12-03T09:44:56.734Z,12.50
2018-12-03T09:47:27.840Z,12.60
2018-12-03T09:49:59.575Z,12.70
2018-12-03T09:52:27.734Z,12.70
2018-12-03T09:54:55.942Z,12.80
2018-12-03T09:57:27.122Z,12.90
2018-12-03T09:59:55.342Z,13.00
2018-12-03T10:02:27.378Z,13.00
2018-12-03T10:05:08.674Z,12.90
2018-12-03T10:07:53.762Z,13.00
2018-12-03T10:13:27.089Z,13.10
2018-12-03T10:15:55.317Z,13.20
2018-12-03T10:18:42.419Z,13.30
2018-12-03T10:21:10.636Z,13.20
2018-12-03T10:23:42.536Z,13.20
2018-12-03T10:26:10.726Z,13.30
2018-12-03T10:28:38.882Z,13.30
2018-12-03T10:31:11.141Z,13.30
2018-12-03T10:33:40.244Z,13.30
2018-12-03T10:36:08.701Z,13.40
2018-12-03T10:38:40.106Z,13.40
2018-12-03T10:41:25.598Z,13.30
2018-12-03T10:43:54.898Z,13.40
2018-12-03T10:46:23.280Z,13.30
2018-12-03T10:49:00.508Z,13.30
2018-12-03T10:51:28.753Z,13.30
2018-12-03T10:53:57.011Z,13.40
2018-12-03T10:56:25.372Z,13.50
2018-12-03T10:58:53.661Z,13.70
2018-12-03T11:01:23.563Z,13.80
2018-12-03T11:03:57.439Z,13.80
2018-12-03T11:06:25.819Z,14.00
2018-12-03T11:08:54.319Z,14.10
2018-12-03T11:11:22.593Z,14.10
2018-12-03T11:13:50.931Z,14.10
2018-12-03T11:16:20.227Z,14.10
2018-12-03T11:18:48.565Z,14.20
2018-12-03T11:21:16.795Z,14.30
2018-12-03T11:23:44.964Z,14.30
2018-12-03T11:26:14.131Z,14.20
2018-12-03T11:28:42.438Z,14.20
2018-12-03T11:31:10.733Z,14.10
2018-12-03T11:33:40.132Z,14.10
2018-12-03T11:36:08.363Z,14.00
2018-12-03T11:38:39.592Z,14.10
2018-12-03T11:41:07.816Z,14.20
2018-12-03T11:43:36.033Z,14.20
2018-12-03T11:46:04.317Z,14.30
2018-12-03T11:48:35.750Z,14.30
2018-12-03T11:51:04.627Z,14.50
2018-12-03T11:53:32.819Z,14.40
2018-12-03T11:56:01.015Z,14.50
2018-12-03T11:58:32.138Z,14.40
2018-12-03T12:01:06.292Z,14.40
2018-12-03T12:03:36.437Z,14.40
2018-12-03T12:06:05.374Z,14.50
2018-12-03T12:08:46.267Z,14.30
2018-12-03T12:11:14.461Z,14.10
2018-12-03T12:13:42.692Z,13.80
2018-12-03T12:16:11.179Z,13.70
2018-12-03T12:18:39.408Z,13.60
2018-12-03T12:21:07.702Z,13.40
2018-12-03T12:23:35.898Z,13.20
2018-12-03T12:26:04.865Z,12.90
2018-12-03T12:28:38.231Z,12.70
2018-12-03T12:31:04.686Z,12.60
2018-12-03T12:33:45.560Z,12.40
2018-12-03T12:36:13.803Z,12.40
2018-12-03T12:38:42.039Z,12.40
2018-12-03T12:41:23.487Z,12.40
2018-12-03T12:43:51.682Z,12.40
2018-12-03T12:46:19.936Z,12.40
2018-12-03T12:48:48.109Z,12.50
2018-12-03T12:51:16.363Z,12.50
2018-12-03T12:53:44.537Z,12.60
2018-12-03T12:56:12.760Z,12.50
2018-12-03T12:58:40.976Z,12.50
2018-12-03T13:01:09.208Z,12.50
2018-12-03T13:03:37.429Z,12.50
2018-12-03T13:06:05.749Z,12.40
2018-12-03T13:08:47.214Z,12.40
2018-12-03T13:11:15.439Z,12.40
2018-12-03T13:13:43.599Z,12.50
2018-12-03T13:16:24.311Z,12.50
2018-12-03T13:18:52.508Z,12.50
2018-12-03T13:21:20.682Z,12.60
2018-12-03T13:23:48.870Z,12.60
2018-12-03T13:26:17.159Z,12.60
2018-12-03T13:28:45.322Z,12.60
2018-12-03T13:31:13.540Z,12.70
2018-12-03T13:33:41.799Z,12.70
2018-12-03T13:36:22.572Z,12.70
2018-12-03T13:38:51.019Z,12.80
2018-12-03T13:41:33.281Z,12.90
2018-12-03T13:44:05.253Z,12.90
2018-12-03T13:46:33.735Z,12.90
2018-12-03T13:49:01.939Z,13.00
2018-12-03T13:51:30.160Z,13.00
2018-12-03T13:54:12.446Z,13.10
2018-12-03T13:59:57.115Z,13.00
2018-12-03T14:02:37.869Z,13.00
2018-12-03T14:05:11.046Z,13.10
2018-12-03T14:07:46.459Z,13.10
2018-12-03T14:10:27.943Z,13.10
2018-12-03T14:12:59.483Z,13.00
2018-12-03T14:15:27.955Z,13.00
2018-12-03T14:17:58.027Z,13.00
2018-12-03T14:20:26.279Z,13.00
2018-12-03T14:23:07.659Z,13.00
2018-12-03T14:25:35.901Z,12.90
2018-12-03T14:28:11.122Z,12.90
2018-12-03T14:30:39.290Z,12.90
2018-12-03T14:33:23.835Z,13.00
2018-12-03T14:36:05.302Z,13.00
2018-12-03T14:38:52.858Z,12.90
2018-12-03T14:41:21.063Z,12.90
2018-12-03T14:43:50.295Z,12.90
2018-12-03T14:46:18.491Z,13.00
2018-12-03T14:48:46.735Z,12.90
2018-12-03T14:51:14.951Z,12.80
2018-12-03T14:53:43.155Z,12.80
2018-12-03T14:56:11.942Z,12.70
2018-12-03T14:58:40.106Z,12.70
2018-12-03T15:01:08.273Z,12.60
2018-12-03T15:03:36.434Z,12.60
2018-12-03T15:06:08.337Z,12.50
2018-12-03T15:08:50.839Z,12.50
2018-12-03T15:11:31.633Z,12.40
2018-12-03T15:14:13.152Z,12.40
2018-12-03T15:16:54.726Z,12.40
2018-12-03T15:19:22.912Z,12.30
2018-12-03T15:21:51.143Z,12.20
2018-12-03T15:24:22.229Z,12.20
2018-12-03T15:26:53.825Z,12.20
2018-12-03T15:29:22.004Z,12.10
2018-12-03T15:31:50.334Z,12.00
2018-12-03T15:34:18.531Z,12.00
2018-12-03T15:36:59.688Z,11.90
2018-12-03T15:39:27.997Z,11.90
2018-12-03T15:41:56.223Z,11.80
2018-12-03T15:44:24.438Z,11.80
2018-12-03T15:47:12.306Z,11.80
2018-12-03T15:49:40.494Z,11.60
2018-12-03T15:52:23.183Z,11.60
2018-12-03T15:54:55.082Z,11.60
2018-12-03T15:57:29.557Z,11.50
2018-12-03T16:00:04.444Z,11.40
2018-12-03T16:02:40.275Z,11.30
2018-12-03T16:05:08.509Z,11.30
2018-12-03T16:07:49.475Z,11.20
2018-12-03T16:10:20.811Z,11.10
2018-12-03T16:12:49.022Z,11.20
2018-12-03T16:15:17.213Z,11.10
2018-12-03T16:17:51.659Z,11.10
2018-12-03T16:20:19.821Z,11.00
2018-12-03T16:22:48.059Z,11.00
2018-12-03T16:25:16.259Z,11.00
2018-12-03T16:27:56.891Z,10.90
2018-12-03T16:30:25.216Z,10.90
2018-12-03T16:32:53.394Z,11.00
2018-12-03T16:35:21.569Z,11.00
2018-12-03T16:37:53.453Z,10.90
2018-12-03T16:40:21.667Z,10.90
2018-12-03T16:42:49.833Z,10.80
2018-12-03T16:45:18.091Z,10.90
2018-12-03T16:47:59.169Z,10.80
2018-12-03T16:50:27.388Z,10.70
2018-12-03T16:52:55.594Z,10.70
2018-12-03T16:55:23.835Z,10.60
2018-12-03T16:57:59.974Z,10.70
2018-12-03T17:00:28.208Z,10.60
2018-12-03T17:02:56.426Z,10.70
2018-12-03T17:05:46.018Z,10.70
2018-12-03T17:08:31.263Z,10.70
2018-12-03T17:10:59.449Z,10.80
2018-12-03T17:13:27.633Z,10.90
2018-12-03T17:15:55.837Z,11.00
2018-12-03T17:18:26.981Z,11.00
2018-12-03T17:20:55.335Z,11.10
2018-12-03T17:23:23.610Z,11.20
2018-12-03T17:25:51.980Z,11.30
2018-12-03T17:28:21.731Z,11.30
2018-12-03T17:30:49.888Z,11.30
2018-12-03T17:33:18.104Z,11.20
2018-12-03T17:35:46.278Z,11.20
2018-12-03T17:38:18.079Z,11.20
2018-12-03T17:43:51.688Z,11.30
2018-12-03T17:46:23.490Z,11.40
2018-12-03T17:48:51.799Z,11.30
2018-12-03T17:51:19.971Z,11.30
2018-12-03T17:53:48.191Z,11.30
2018-12-03T17:56:16.386Z,11.30
2018-12-03T17:58:44.590Z,11.30
2018-12-03T18:01:12.831Z,11.30
2018-12-03T18:03:41.048Z,11.30
2018-12-03T18:06:09.266Z,11.30
2018-12-03T18:08:51.897Z,11.40
2018-12-03T18:11:20.101Z,11.40
2018-12-03T18:13:48.292Z,11.40
2018-12-03T18:16:16.459Z,11.50
2018-12-03T18:18:44.645Z,11.40
2018-12-03T18:21:12.834Z,11.50
2018-12-03T18:23:41.049Z,11.50
2018-12-03T18:26:09.254Z,11.50
2018-12-03T18:28:40.534Z,11.50
2018-12-03T18:31:08.711Z,11.50
2018-12-03T18:33:49.811Z,11.50
2018-12-03T18:36:34.785Z,11.50
2018-12-03T18:39:03.046Z,11.40
2018-12-03T18:41:45.537Z,11.40
2018-12-03T18:44:26.359Z,11.40
2018-12-03T18:46:57.945Z,11.40
2018-12-03T18:49:26.216Z,11.40
2018-12-03T18:51:54.407Z,11.40
2018-12-03T18:54:22.610Z,11.50
2018-12-03T18:56:53.858Z,11.40
2018-12-03T18:59:22.070Z,11.40
2018-12-03T19:01:50.263Z,11.50
2018-12-03T19:04:18.493Z,11.40
2018-12-03T19:06:50.168Z,11.40
2018-12-03T19:09:18.418Z,11.40
2018-12-03T19:11:46.717Z,11.50
2018-12-03T19:14:14.878Z,11.50
2018-12-03T19:16:46.895Z,11.50
2018-12-03T19:19:15.127Z,11.50
2018-12-03T19:21:43.375Z,11.50
2018-12-03T19:24:11.525Z,11.50
2018-12-03T19:26:42.628Z,11.60
2018-12-03T19:29:10.819Z,11.60
2018-12-03T19:31:38.967Z,11.60
2018-12-03T19:34:07.116Z,11.60
2018-12-03T19:36:37.055Z,11.60
2018-12-03T19:39:17.906Z,11.60
2018-12-03T19:41:58.491Z,11.50
2018-12-03T19:44:26.691Z,11.50
2018-12-03T19:46:57.808Z,11.50
2018-12-03T19:49:26.115Z,11.50
2018-12-03T19:51:54.902Z,11.40
2018-12-03T19:54:23.055Z,11.40
2018-12-03T19:56:54.195Z,11.40
2018-12-03T19:59:22.373Z,11.40
2018-12-03T20:01:50.520Z,11.30
2018-12-03T20:04:21.409Z,11.30
2018-12-03T20:06:53.152Z,11.30
2018-12-03T20:09:21.407Z,11.30
2018-12-03T20:11:49.559Z,11.30
2018-12-03T20:14:17.734Z,11.30
2018-12-03T20:16:52.386Z,11.30
2018-12-03T20:19:20.538Z,11.30
2018-12-03T20:21:48.817Z,11.20
2018-12-03T20:24:17.237Z,11.30
2018-12-03T20:26:49.220Z,11.30
2018-12-03T20:29:17.509Z,11.30
2018-12-03T20:31:56.197Z,11.20
2018-12-03T20:34:24.426Z,11.30
2018-12-03T20:37:00.063Z,11.30
2018-12-03T20:39:34.862Z,11.30
2018-12-03T20:42:03.182Z,11.40
2018-12-03T20:44:31.371Z,11.40
2018-12-03T20:47:05.734Z,11.30
2018-12-03T20:49:34.403Z,11.30
2018-12-03T20:52:04.736Z,11.30
2018-12-03T20:54:32.880Z,11.40
2018-12-03T20:57:04.154Z,11.40
2018-12-03T20:59:54.154Z,11.40
2018-12-03T21:02:39.409Z,11.50
2018-12-03T21:05:07.613Z,11.40
2018-12-03T21:07:39.321Z,11.50
2018-12-03T21:10:07.605Z,11.50
2018-12-03T21:12:35.851Z,11.40
2018-12-03T21:15:04.392Z,11.50
2018-12-03T21:17:35.915Z,11.40
2018-12-03T21:20:09.337Z,11.40
2018-12-03T21:22:37.507Z,11.40
2018-12-03T21:25:06.134Z,11.40
2018-12-03T21:27:37.842Z,11.40
2018-12-03T21:30:08.258Z,11.30
2018-12-03T21:32:36.409Z,11.30
2018-12-03T21:35:05.551Z,11.30
2018-12-03T21:37:37.552Z,11.20
2018-12-03T21:40:07.019Z,11.20
2018-12-03T21:42:35.209Z,11.20
2018-12-03T21:45:03.392Z,11.20
2018-12-03T21:47:38.050Z,11.20
2018-12-03T21:50:07.228Z,11.20
2018-12-03T21:52:36.301Z,11.20
2018-12-03T21:55:05.958Z,11.30
2018-12-03T21:57:38.270Z,11.30
2018-12-03T22:00:06.754Z,11.30
2018-12-03T22:02:36.750Z,11.30
2018-12-03T22:05:06.226Z,11.20
2018-12-03T22:07:38.247Z,11.30
2018-12-03T22:10:12.140Z,11.20
2018-12-03T22:12:40.423Z,11.20
2018-12-03T22:15:09.182Z,11.20
2018-12-03T22:17:41.499Z,11.30
2018-12-03T22:20:24.043Z,11.30
2018-12-03T22:22:52.215Z,11.20
2018-12-03T22:25:20.575Z,11.20
2018-12-03T22:27:54.759Z,11.20
2018-12-03T22:30:29.652Z,11.10
2018-12-03T22:32:57.867Z,11.20
2018-12-03T22:35:26.053Z,11.10
2018-12-03T22:37:58.098Z,11.10
2018-12-03T22:40:26.333Z,11.00
2018-12-03T22:42:54.978Z,11.00
2018-12-03T22:45:23.195Z,11.00
2018-12-03T22:47:55.202Z,11.00
2018-12-03T22:50:23.457Z,10.90
2018-12-03T22:52:51.618Z,10.90
2018-12-03T22:55:19.825Z,10.80
2018-12-03T22:57:51.120Z,10.80
2018-12-03T23:00:26.083Z,10.80
2018-12-03T23:02:54.261Z,10.80
2018-12-03T23:05:22.471Z,10.80
2018-12-03T23:07:54.465Z,10.80
2018-12-03T23:10:22.671Z,10.80
2018-12-03T23:12:50.836Z,10.90
2018-12-03T23:15:31.919Z,10.80
2018-12-03T23:18:00.137Z,10.80
2018-12-03T23:20:28.363Z,10.90
2018-12-03T23:22:58.352Z,11.00
2018-12-03T23:25:26.597Z,11.00
2018-12-03T23:27:58.252Z,11.00
2018-12-03T23:30:32.507Z,11.00
2018-12-03T23:33:00.709Z,11.10
2018-12-03T23:35:28.889Z,11.10
2018-12-03T23:38:00.929Z,11.10
2018-12-03T23:40:41.957Z,11.10
2018-12-03T23:43:10.168Z,11.10
2018-12-03T23:45:38.462Z,11.10
2018-12-03T23:48:10.400Z,11.10
2018-12-03T23:50:51.811Z,11.00
2018-12-03T23:53:22.982Z,11.00
2018-12-03T23:55:51.266Z,11.10
2018-12-03T23:58:23.335Z,11.10
